sensor_id;sensor_type;location;lat;lon;timestamp;pressure;altitude;pressure_sealevel;temperature;humidity
21545;BME280;10933;50.754;11.508;2023-04-07T00:00:09;99703.91;;;-2.27;100.00
21545;BME280;10933;50.754;11.508;2023-04-07T00:02:35;99712.31;;;-2.31;100.00
21545;BME280;10933;50.754;11.508;2023-04-07T00:05:01;99702.09;;;-2.34;100.00
21545;BME280;10933;50.754;11.508;2023-04-07T00:07:27;99709.03;;;-2.25;100.00
21545;BME280;10933;50.754;11.508;2023-04-07T00:09:54;99705.88;;;-2.29;100.00
21545;BME280;10933;50.754;11.508;2023-04-07T00:12:20;99698.44;;;-2.33;100.00
21545;BME280;10933;50.754;11.508;2023-04-07T00:14:46;99711.00;;;-2.35;100.00
21545;BME280;10933;50.754;11.508;2023-04-07T00:17:12;99705.38;;;-2.32;100.00
21545;BME280;10933;50.754;11.508;2023-04-07T00:19:38;99705.38;;;-2.32;100.00
21545;BME280;10933;50.754;11.508;2023-04-07T00:22:04;99703.41;;;-2.39;100.00
21545;BME280;10933;50.754;11.508;2023-04-07T00:24:31;99702.75;;;-2.41;100.00
21545;BME280;10933;50.754;11.508;2023-04-07T00:26:57;99709.34;;;-2.45;100.00
21545;BME280;10933;50.754;11.508;2023-04-07T00:29:23;99703.41;;;-2.47;100.00
21545;BME280;10933;50.754;11.508;2023-04-07T00:31:49;99705.72;;;-2.52;100.00
21545;BME280;10933;50.754;11.508;2023-04-07T00:34:15;99694.00;;;-2.49;100.00
21545;BME280;10933;50.754;11.508;2023-04-07T00:36:41;99690.16;;;-2.55;100.00
21545;BME280;10933;50.754;11.508;2023-04-07T00:39:07;99687.69;;;-2.56;100.00
21545;BME280;10933;50.754;11.508;2023-04-07T00:41:34;99693.78;;;-2.56;100.00
21545;BME280;10933;50.754;11.508;2023-04-07T00:44:01;99688.50;;;-2.56;100.00
21545;BME280;10933;50.754;11.508;2023-04-07T00:46:28;99688.22;;;-2.53;100.00
21545;BME280;10933;50.754;11.508;2023-04-07T00:48:54;99686.03;;;-2.57;100.00
21545;BME280;10933;50.754;11.508;2023-04-07T00:51:21;99688.03;;;-2.59;100.00
21545;BME280;10933;50.754;11.508;2023-04-07T00:53:48;99687.53;;;-2.63;100.00
21545;BME280;10933;50.754;11.508;2023-04-07T00:56:14;99688.00;;;-2.68;100.00
21545;BME280;10933;50.754;11.508;2023-04-07T00:58:40;99681.41;;;-2.72;100.00
21545;BME280;10933;50.754;11.508;2023-04-07T01:01:21;99677.59;;;-2.69;100.00
21545;BME280;10933;50.754;11.508;2023-04-07T01:04:16;99686.53;;;-2.62;100.00
21545;BME280;10933;50.754;11.508;2023-04-07T01:06:49;99676.47;;;-2.58;100.00
21545;BME280;10933;50.754;11.508;2023-04-07T01:09:37;99677.97;;;-2.64;100.00
21545;BME280;10933;50.754;11.508;2023-04-07T01:12:23;99676.31;;;-2.65;100.00
21545;BME280;10933;50.754;11.508;2023-04-07T01:14:57;99675.00;;;-2.61;100.00
21545;BME280;10933;50.754;11.508;2023-04-07T01:17:25;99670.88;;;-2.63;100.00
21545;BME280;10933;50.754;11.508;2023-04-07T01:19:57;99668.69;;;-2.68;100.00
21545;BME280;10933;50.754;11.508;2023-04-07T01:22:28;99666.75;;;-2.66;100.00
21545;BME280;10933;50.754;11.508;2023-04-07T01:25:31;99673.81;;;-2.75;100.00
21545;BME280;10933;50.754;11.508;2023-04-07T01:28:14;99674.31;;;-2.79;100.00
21545;BME280;10933;50.754;11.508;2023-04-07T01:30:48;99675.59;;;-2.83;100.00
21545;BME280;10933;50.754;11.508;2023-04-07T01:33:16;99669.00;;;-2.87;100.00
21545;BME280;10933;50.754;11.508;2023-04-07T01:35:44;99681.53;;;-2.89;100.00
21545;BME280;10933;50.754;11.508;2023-04-07T01:38:12;99673.59;;;-2.98;100.00
21545;BME280;10933;50.754;11.508;2023-04-07T01:40:39;99673.25;;;-3.03;100.00
21545;BME280;10933;50.754;11.508;2023-04-07T01:43:06;99680.16;;;-3.10;100.00
21545;BME280;10933;50.754;11.508;2023-04-07T01:45:35;99683.44;;;-3.08;100.00
21545;BME280;10933;50.754;11.508;2023-04-07T01:48:05;99667.63;;;-3.08;100.00
21545;BME280;10933;50.754;11.508;2023-04-07T01:50:33;99670.59;;;-3.11;100.00
21545;BME280;10933;50.754;11.508;2023-04-07T01:52:59;99671.25;;;-3.09;100.00
21545;BME280;10933;50.754;11.508;2023-04-07T01:55:26;99676.06;;;-3.04;100.00
21545;BME280;10933;50.754;11.508;2023-04-07T01:57:53;99677.22;;;-2.99;100.00
21545;BME280;10933;50.754;11.508;2023-04-07T02:00:19;99673.09;;;-3.01;100.00
21545;BME280;10933;50.754;11.508;2023-04-07T02:02:50;99678.69;;;-3.04;100.00
21545;BME280;10933;50.754;11.508;2023-04-07T02:05:20;99673.88;;;-3.09;100.00
21545;BME280;10933;50.754;11.508;2023-04-07T02:07:53;99672.72;;;-3.14;100.00
21545;BME280;10933;50.754;11.508;2023-04-07T02:10:22;99659.22;;;-3.11;100.00
21545;BME280;10933;50.754;11.508;2023-04-07T02:12:49;99669.09;;;-3.13;100.00
21545;BME280;10933;50.754;11.508;2023-04-07T02:15:18;99666.63;;;-3.15;100.00
21545;BME280;10933;50.754;11.508;2023-04-07T02:17:47;99660.69;;;-3.17;100.00
21545;BME280;10933;50.754;11.508;2023-04-07T02:20:15;99659.38;;;-3.13;100.00
21545;BME280;10933;50.754;11.508;2023-04-07T02:22:42;99661.66;;;-3.18;100.00
21545;BME280;10933;50.754;11.508;2023-04-07T02:25:26;99666.59;;;-3.23;100.00
21545;BME280;10933;50.754;11.508;2023-04-07T02:27:52;99660.97;;;-3.28;100.00
21545;BME280;10933;50.754;11.508;2023-04-07T02:30:19;99662.25;;;-3.32;100.00
21545;BME280;10933;50.754;11.508;2023-04-07T02:32:45;99660.59;;;-3.33;100.00
21545;BME280;10933;50.754;11.508;2023-04-07T02:35:12;99651.25;;;-3.28;100.00
21545;BME280;10933;50.754;11.508;2023-04-07T02:37:38;99652.13;;;-3.11;100.00
21545;BME280;10933;50.754;11.508;2023-04-07T02:40:05;99658.09;;;-3.01;100.00
21545;BME280;10933;50.754;11.508;2023-04-07T02:42:32;99653.28;;;-3.13;100.00
21545;BME280;10933;50.754;11.508;2023-04-07T02:44:58;99658.34;;;-3.28;100.00
21545;BME280;10933;50.754;11.508;2023-04-07T02:47:24;99658.63;;;-3.31;100.00
21545;BME280;10933;50.754;11.508;2023-04-07T02:49:50;99661.16;;;-3.21;100.00
21545;BME280;10933;50.754;11.508;2023-04-07T02:52:17;99660.00;;;-3.19;100.00
21545;BME280;10933;50.754;11.508;2023-04-07T02:54:43;99654.22;;;-3.22;100.00
21545;BME280;10933;50.754;11.508;2023-04-07T02:57:09;99658.72;;;-3.07;100.00
21545;BME280;10933;50.754;11.508;2023-04-07T02:59:35;99664.31;;;-3.10;100.00
21545;BME280;10933;50.754;11.508;2023-04-07T03:02:01;99655.88;;;-3.21;100.00
21545;BME280;10933;50.754;11.508;2023-04-07T03:04:27;99660.78;;;-3.35;100.00
21545;BME280;10933;50.754;11.508;2023-04-07T03:06:53;99655.63;;;-3.44;100.00
21545;BME280;10933;50.754;11.508;2023-04-07T03:09:21;99650.16;;;-3.51;100.00
21545;BME280;10933;50.754;11.508;2023-04-07T03:11:48;99647.69;;;-3.52;100.00
21545;BME280;10933;50.754;11.508;2023-04-07T03:14:14;99647.69;;;-3.52;100.00
21545;BME280;10933;50.754;11.508;2023-04-07T03:16:41;99656.38;;;-3.60;100.00
21545;BME280;10933;50.754;11.508;2023-04-07T03:19:08;99653.06;;;-3.62;100.00
21545;BME280;10933;50.754;11.508;2023-04-07T03:21:37;99655.88;;;-3.64;100.00
21545;BME280;10933;50.754;11.508;2023-04-07T03:24:05;99649.28;;;-3.68;100.00
21545;BME280;10933;50.754;11.508;2023-04-07T03:26:31;99653.19;;;-3.72;100.00
21545;BME280;10933;50.754;11.508;2023-04-07T03:28:58;99641.69;;;-3.63;100.00
21545;BME280;10933;50.754;11.508;2023-04-07T03:31:24;99653.91;;;-3.62;100.00
21545;BME280;10933;50.754;11.508;2023-04-07T03:33:50;99659.16;;;-3.62;100.00
21545;BME280;10933;50.754;11.508;2023-04-07T03:36:16;99654.53;;;-3.68;100.00
21545;BME280;10933;50.754;11.508;2023-04-07T03:38:46;99649.28;;;-3.68;100.00
21545;BME280;10933;50.754;11.508;2023-04-07T03:41:12;99648.75;;;-3.71;100.00
21545;BME280;10933;50.754;11.508;2023-04-07T03:43:39;99649.56;;;-3.71;100.00
21545;BME280;10933;50.754;11.508;2023-04-07T03:46:05;99642.28;;;-3.77;100.00
21545;BME280;10933;50.754;11.508;2023-04-07T03:48:31;99648.19;;;-3.83;100.00
21545;BME280;10933;50.754;11.508;2023-04-07T03:50:58;99643.06;;;-3.85;100.00
21545;BME280;10933;50.754;11.508;2023-04-07T03:53:24;99640.09;;;-3.90;100.00
21545;BME280;10933;50.754;11.508;2023-04-07T03:55:50;99638.88;;;-3.95;100.00
21545;BME280;10933;50.754;11.508;2023-04-07T03:58:17;99648.75;;;-3.97;100.00
21545;BME280;10933;50.754;11.508;2023-04-07T04:00:43;99636.88;;;-4.01;100.00
21545;BME280;10933;50.754;11.508;2023-04-07T04:03:09;99645.44;;;-3.99;100.00
21545;BME280;10933;50.754;11.508;2023-04-07T04:05:36;99646.44;;;-4.00;100.00
21545;BME280;10933;50.754;11.508;2023-04-07T04:08:02;99646.09;;;-4.05;100.00
21545;BME280;10933;50.754;11.508;2023-04-07T04:10:28;99648.03;;;-4.07;100.00
21545;BME280;10933;50.754;11.508;2023-04-07T04:12:54;99646.09;;;-4.05;100.00
21545;BME280;10933;50.754;11.508;2023-04-07T04:15:20;99644.03;;;-3.94;100.00
21545;BME280;10933;50.754;11.508;2023-04-07T04:17:47;99644.03;;;-3.94;100.00
21545;BME280;10933;50.754;11.508;2023-04-07T04:20:13;99649.06;;;-4.00;100.00
21545;BME280;10933;50.754;11.508;2023-04-07T04:22:39;99650.72;;;-3.99;100.00
21545;BME280;10933;50.754;11.508;2023-04-07T04:25:05;99649.53;;;-4.05;100.00
21545;BME280;10933;50.754;11.508;2023-04-07T04:27:31;99649.00;;;-4.08;100.00
21545;BME280;10933;50.754;11.508;2023-04-07T04:29:57;99651.66;;;-4.08;100.00
21545;BME280;10933;50.754;11.508;2023-04-07T04:32:23;99647.75;;;-4.04;100.00
21545;BME280;10933;50.754;11.508;2023-04-07T04:34:49;99650.00;;;-4.09;100.00
21545;BME280;10933;50.754;11.508;2023-04-07T04:37:15;99643.22;;;-4.12;100.00
21545;BME280;10933;50.754;11.508;2023-04-07T04:39:42;99651.13;;;-4.12;100.00
21545;BME280;10933;50.754;11.508;2023-04-07T04:42:08;99653.28;;;-4.07;100.00
21545;BME280;10933;50.754;11.508;2023-04-07T04:44:34;99651.97;;;-4.11;100.00
21545;BME280;10933;50.754;11.508;2023-04-07T04:47:00;99649.31;;;-4.11;100.00
21545;BME280;10933;50.754;11.508;2023-04-07T04:49:26;99652.69;;;-4.01;100.00
21545;BME280;10933;50.754;11.508;2023-04-07T04:51:52;99649.06;;;-4.00;100.00
21545;BME280;10933;50.754;11.508;2023-04-07T04:54:19;99653.72;;;-3.94;100.00
21545;BME280;10933;50.754;11.508;2023-04-07T04:56:45;99658.97;;;-3.94;100.00
21545;BME280;10933;50.754;11.508;2023-04-07T04:59:11;99658.69;;;-3.91;100.00
21545;BME280;10933;50.754;11.508;2023-04-07T05:01:37;99663.31;;;-3.85;100.00
21545;BME280;10933;50.754;11.508;2023-04-07T05:04:03;99654.66;;;-3.77;100.00
21545;BME280;10933;50.754;11.508;2023-04-07T05:06:29;99660.09;;;-3.71;100.00
21545;BME280;10933;50.754;11.508;2023-04-07T05:08:56;99658.13;;;-3.69;100.00
21545;BME280;10933;50.754;11.508;2023-04-07T05:11:22;99654.53;;;-3.68;100.00
21545;BME280;10933;50.754;11.508;2023-04-07T05:13:48;99654.22;;;-3.65;100.00
21545;BME280;10933;50.754;11.508;2023-04-07T05:16:14;99657.19;;;-3.60;100.00
21545;BME280;10933;50.754;11.508;2023-04-07T05:18:40;99651.47;;;-3.55;100.00
21545;BME280;10933;50.754;11.508;2023-04-07T05:21:06;99655.13;;;-3.48;100.00
21545;BME280;10933;50.754;11.508;2023-04-07T05:23:32;99649.06;;;-3.32;100.00
21545;BME280;10933;50.754;11.508;2023-04-07T05:25:58;99655.69;;;-3.28;100.00
21545;BME280;10933;50.754;11.508;2023-04-07T05:28:24;99657.34;;;-3.19;100.00
21545;BME280;10933;50.754;11.508;2023-04-07T05:30:51;99649.31;;;-3.09;100.00
21545;BME280;10933;50.754;11.508;2023-04-07T05:33:17;99659.06;;;-3.02;100.00
21545;BME280;10933;50.754;11.508;2023-04-07T05:35:44;99656.94;;;-2.98;100.00
21545;BME280;10933;50.754;11.508;2023-04-07T05:38:11;99650.00;;;-2.99;100.00
21545;BME280;10933;50.754;11.508;2023-04-07T05:40:38;99658.78;;;-2.90;100.00
21545;BME280;10933;50.754;11.508;2023-04-07T05:43:04;99654.03;;;-2.79;100.00
21545;BME280;10933;50.754;11.508;2023-04-07T05:45:30;99659.13;;;-2.69;100.00
21545;BME280;10933;50.754;11.508;2023-04-07T05:47:56;99650.25;;;-2.52;100.00
21545;BME280;10933;50.754;11.508;2023-04-07T05:50:22;99656.84;;;-2.40;100.00
21545;BME280;10933;50.754;11.508;2023-04-07T05:52:48;99646.75;;;-2.20;100.00
21545;BME280;10933;50.754;11.508;2023-04-07T05:55:15;99659.13;;;-2.04;100.00
21545;BME280;10933;50.754;11.508;2023-04-07T05:57:41;99651.53;;;-1.99;100.00
21545;BME280;10933;50.754;11.508;2023-04-07T06:00:08;99654.13;;;-1.83;100.00
21545;BME280;10933;50.754;11.508;2023-04-07T06:02:34;99650.84;;;-1.76;100.00
21545;BME280;10933;50.754;11.508;2023-04-07T06:05:01;99650.16;;;-1.79;100.00
21545;BME280;10933;50.754;11.508;2023-04-07T06:07:27;99657.72;;;-1.59;100.00
21545;BME280;10933;50.754;11.508;2023-04-07T06:09:53;99648.00;;;-1.28;100.00
21545;BME280;10933;50.754;11.508;2023-04-07T06:12:19;99655.13;;;-0.97;100.00
21545;BME280;10933;50.754;11.508;2023-04-07T06:14:50;99642.25;;;-1.00;100.00
21545;BME280;10933;50.754;11.508;2023-04-07T06:17:17;99653.03;;;-0.79;100.00
21545;BME280;10933;50.754;11.508;2023-04-07T06:19:43;99653.75;;;-0.39;100.00
21545;BME280;10933;50.754;11.508;2023-04-07T06:22:10;99652.31;;;-0.27;100.00
21545;BME280;10933;50.754;11.508;2023-04-07T06:24:36;99651.97;;;-0.24;100.00
21545;BME280;10933;50.754;11.508;2023-04-07T06:27:02;99649.13;;;0.01;100.00
21545;BME280;10933;50.754;11.508;2023-04-07T06:29:29;99646.72;;;0.06;100.00
21545;BME280;10933;50.754;11.508;2023-04-07T06:31:55;99642.25;;;0.36;100.00
21545;BME280;10933;50.754;11.508;2023-04-07T06:34:21;99642.19;;;0.29;100.00
21545;BME280;10933;50.754;11.508;2023-04-07T06:36:47;99639.97;;;0.62;100.00
21545;BME280;10933;50.754;11.508;2023-04-07T06:39:13;99638.13;;;0.63;100.00
21545;BME280;10933;50.754;11.508;2023-04-07T06:41:40;99630.34;;;0.61;100.00
21545;BME280;10933;50.754;11.508;2023-04-07T06:44:09;99635.53;;;0.84;100.00
21545;BME280;10933;50.754;11.508;2023-04-07T06:46:40;99628.81;;;0.67;100.00
21545;BME280;10933;50.754;11.508;2023-04-07T06:49:07;99631.72;;;0.72;100.00
21545;BME280;10933;50.754;11.508;2023-04-07T06:51:33;99627.19;;;0.87;100.00
21545;BME280;10933;50.754;11.508;2023-04-07T06:53:59;99636.19;;;0.86;100.00
21545;BME280;10933;50.754;11.508;2023-04-07T06:56:26;99622.94;;;1.07;100.00
21545;BME280;10933;50.754;11.508;2023-04-07T06:58:52;99624.63;;;1.30;100.00
21545;BME280;10933;50.754;11.508;2023-04-07T07:01:18;99622.06;;;1.64;100.00
21545;BME280;10933;50.754;11.508;2023-04-07T07:03:44;99626.25;;;2.01;100.00
21545;BME280;10933;50.754;11.508;2023-04-07T07:06:11;99616.44;;;2.36;100.00
21545;BME280;10933;50.754;11.508;2023-04-07T07:08:37;99619.88;;;2.65;100.00
21545;BME280;10933;50.754;11.508;2023-04-07T07:11:03;99620.53;;;4.21;100.00
21545;BME280;10933;50.754;11.508;2023-04-07T07:13:30;99623.47;;;5.85;100.00
21545;BME280;10933;50.754;11.508;2023-04-07T07:15:56;99615.59;;;7.06;100.00
21545;BME280;10933;50.754;11.508;2023-04-07T07:18:22;99620.59;;;7.33;100.00
21545;BME280;10933;50.754;11.508;2023-04-07T07:20:48;99636.09;;;8.38;100.00
21545;BME280;10933;50.754;11.508;2023-04-07T07:23:15;99643.84;;;9.26;100.00
21545;BME280;10933;50.754;11.508;2023-04-07T07:25:41;99655.78;;;9.59;100.00
21545;BME280;10933;50.754;11.508;2023-04-07T07:28:07;99648.91;;;8.82;100.00
21545;BME280;10933;50.754;11.508;2023-04-07T07:30:34;99654.31;;;9.11;100.00
21545;BME280;10933;50.754;11.508;2023-04-07T07:33:00;99649.75;;;9.11;100.00
21545;BME280;10933;50.754;11.508;2023-04-07T07:35:26;99662.81;;;9.60;100.00
21545;BME280;10933;50.754;11.508;2023-04-07T07:37:52;99660.09;;;9.60;100.00
21545;BME280;10933;50.754;11.508;2023-04-07T07:40:19;99652.28;;;10.98;100.00
21545;BME280;10933;50.754;11.508;2023-04-07T07:42:45;99663.31;;;11.94;100.00
21545;BME280;10933;50.754;11.508;2023-04-07T07:45:12;99665.41;;;11.33;100.00
21545;BME280;10933;50.754;11.508;2023-04-07T07:47:39;99669.38;;;10.65;100.00
21545;BME280;10933;50.754;11.508;2023-04-07T07:50:05;99665.84;;;11.78;100.00
21545;BME280;10933;50.754;11.508;2023-04-07T07:52:31;99670.06;;;12.23;100.00
21545;BME280;10933;50.754;11.508;2023-04-07T07:54:57;99668.63;;;13.63;96.96
21545;BME280;10933;50.754;11.508;2023-04-07T07:57:23;99676.38;;;13.23;90.10
21545;BME280;10933;50.754;11.508;2023-04-07T07:59:50;99681.13;;;13.01;86.92
21545;BME280;10933;50.754;11.508;2023-04-07T08:02:16;99680.22;;;15.06;75.90
21545;BME280;10933;50.754;11.508;2023-04-07T08:04:42;99683.97;;;15.20;62.58
21545;BME280;10933;50.754;11.508;2023-04-07T08:07:08;99683.16;;;15.74;61.29
21545;BME280;10933;50.754;11.508;2023-04-07T08:09:36;99689.81;;;17.18;51.60
21545;BME280;10933;50.754;11.508;2023-04-07T08:12:02;99688.22;;;17.97;45.97
21545;BME280;10933;50.754;11.508;2023-04-07T08:14:29;99684.75;;;17.30;46.67
21545;BME280;10933;50.754;11.508;2023-04-07T08:16:55;99686.44;;;18.39;44.58
21545;BME280;10933;50.754;11.508;2023-04-07T08:19:21;99682.44;;;17.99;46.62
21545;BME280;10933;50.754;11.508;2023-04-07T08:21:48;99682.63;;;18.53;46.61
21545;BME280;10933;50.754;11.508;2023-04-07T08:24:14;99675.59;;;20.43;40.43
21545;BME280;10933;50.754;11.508;2023-04-07T08:26:40;99681.25;;;19.66;41.56
21545;BME280;10933;50.754;11.508;2023-04-07T08:29:07;99667.53;;;19.80;43.93
21545;BME280;10933;50.754;11.508;2023-04-07T08:31:33;99677.97;;;18.87;41.90
21545;BME280;10933;50.754;11.508;2023-04-07T08:33:59;99678.00;;;16.45;43.98
21545;BME280;10933;50.754;11.508;2023-04-07T08:36:25;99679.28;;;19.44;40.99
21545;BME280;10933;50.754;11.508;2023-04-07T08:38:52;99671.16;;;19.39;39.21
21545;BME280;10933;50.754;11.508;2023-04-07T08:41:38;99661.25;;;18.74;43.56
21545;BME280;10933;50.754;11.508;2023-04-07T08:44:05;99664.69;;;20.83;41.21
21545;BME280;10933;50.754;11.508;2023-04-07T08:46:33;99665.31;;;21.11;39.31
21545;BME280;10933;50.754;11.508;2023-04-07T08:49:00;99668.06;;;20.80;37.64
21545;BME280;10933;50.754;11.508;2023-04-07T08:51:28;99664.47;;;22.37;35.30
21545;BME280;10933;50.754;11.508;2023-04-07T08:54:04;99657.06;;;21.20;37.59
21545;BME280;10933;50.754;11.508;2023-04-07T08:56:32;99666.53;;;21.36;36.03
21545;BME280;10933;50.754;11.508;2023-04-07T08:59:00;99660.72;;;19.55;36.90
21545;BME280;10933;50.754;11.508;2023-04-07T09:01:27;99658.22;;;18.90;36.90
21545;BME280;10933;50.754;11.508;2023-04-07T09:03:56;99662.81;;;19.72;37.09
21545;BME280;10933;50.754;11.508;2023-04-07T09:06:23;99666.19;;;21.46;33.96
21545;BME280;10933;50.754;11.508;2023-04-07T09:08:50;99664.75;;;20.38;33.74
21545;BME280;10933;50.754;11.508;2023-04-07T09:11:16;99652.19;;;20.37;35.33
21545;BME280;10933;50.754;11.508;2023-04-07T09:13:42;99659.13;;;21.97;34.52
21545;BME280;10933;50.754;11.508;2023-04-07T09:16:11;99645.91;;;19.92;35.60
21545;BME280;10933;50.754;11.508;2023-04-07T09:18:38;99652.34;;;21.51;34.79
21545;BME280;10933;50.754;11.508;2023-04-07T09:21:05;99641.84;;;22.78;32.68
21545;BME280;10933;50.754;11.508;2023-04-07T09:23:37;99651.59;;;22.75;31.86
21545;BME280;10933;50.754;11.508;2023-04-07T09:26:22;99646.19;;;22.41;32.67
21545;BME280;10933;50.754;11.508;2023-04-07T09:28:56;99642.63;;;22.31;31.89
21545;BME280;10933;50.754;11.508;2023-04-07T09:31:42;99637.97;;;23.88;31.04
21545;BME280;10933;50.754;11.508;2023-04-07T09:34:30;99632.06;;;25.38;30.58
21545;BME280;10933;50.754;11.508;2023-04-07T09:37:01;99620.97;;;24.40;31.47
21545;BME280;10933;50.754;11.508;2023-04-07T09:39:27;99629.50;;;23.52;31.29
21545;BME280;10933;50.754;11.508;2023-04-07T09:41:54;99628.38;;;23.23;32.02
21545;BME280;10933;50.754;11.508;2023-04-07T09:44:21;99614.03;;;22.79;33.04
21545;BME280;10933;50.754;11.508;2023-04-07T09:49:14;99620.06;;;25.70;30.21
21545;BME280;10933;50.754;11.508;2023-04-07T09:51:52;99626.66;;;25.41;29.80
21545;BME280;10933;50.754;11.508;2023-04-07T09:57:00;99618.69;;;24.54;30.96
21545;BME280;10933;50.754;11.508;2023-04-07T09:59:31;99610.91;;;24.69;30.60
21545;BME280;10933;50.754;11.508;2023-04-07T10:01:58;99605.50;;;25.21;31.40
21545;BME280;10933;50.754;11.508;2023-04-07T10:04:25;99607.59;;;25.12;30.83
21545;BME280;10933;50.754;11.508;2023-04-07T10:06:52;99605.53;;;25.73;30.50
21545;BME280;10933;50.754;11.508;2023-04-07T10:09:19;99604.81;;;23.64;29.64
21545;BME280;10933;50.754;11.508;2023-04-07T10:11:49;99597.53;;;23.38;30.97
21545;BME280;10933;50.754;11.508;2023-04-07T10:14:16;99601.97;;;21.99;30.98
21545;BME280;10933;50.754;11.508;2023-04-07T10:16:43;99594.31;;;22.77;30.52
21545;BME280;10933;50.754;11.508;2023-04-07T10:19:11;99601.00;;;23.47;30.38
21545;BME280;10933;50.754;11.508;2023-04-07T10:21:40;99606.19;;;25.83;28.83
21545;BME280;10933;50.754;11.508;2023-04-07T10:26:55;99595.03;;;26.82;23.33
21545;BME280;10933;50.754;11.508;2023-04-07T10:29:23;99592.22;;;27.14;25.81
21545;BME280;10933;50.754;11.508;2023-04-07T10:31:51;99594.38;;;25.70;24.22
21545;BME280;10933;50.754;11.508;2023-04-07T10:37:18;99566.81;;;23.90;27.02
21545;BME280;10933;50.754;11.508;2023-04-07T10:39:48;99571.91;;;24.46;25.08
21545;BME280;10933;50.754;11.508;2023-04-07T10:45:07;99569.31;;;21.71;27.85
21545;BME280;10933;50.754;11.508;2023-04-07T10:50:21;99564.09;;;24.60;27.56
21545;BME280;10933;50.754;11.508;2023-04-07T10:53:03;99577.25;;;26.52;25.17
21545;BME280;10933;50.754;11.508;2023-04-07T10:55:40;99571.50;;;24.23;24.79
21545;BME280;10933;50.754;11.508;2023-04-07T10:58:29;99566.63;;;23.54;27.44
21545;BME280;10933;50.754;11.508;2023-04-07T11:03:37;99578.00;;;22.25;26.82
21545;BME280;10933;50.754;11.508;2023-04-07T11:08:34;99573.03;;;22.95;25.80
21545;BME280;10933;50.754;11.508;2023-04-07T11:11:02;99562.16;;;22.60;28.15
21545;BME280;10933;50.754;11.508;2023-04-07T11:16:09;99564.88;;;23.91;25.67
21545;BME280;10933;50.754;11.508;2023-04-07T11:18:36;99566.09;;;22.13;27.62
21545;BME280;10933;50.754;11.508;2023-04-07T11:21:03;99562.63;;;24.62;27.12
21545;BME280;10933;50.754;11.508;2023-04-07T11:23:37;99562.16;;;22.22;28.04
21545;BME280;10933;50.754;11.508;2023-04-07T11:26:04;99568.06;;;21.43;29.21
21545;BME280;10933;50.754;11.508;2023-04-07T11:28:31;99569.28;;;21.11;29.44
21545;BME280;10933;50.754;11.508;2023-04-07T11:30:57;99569.47;;;22.01;29.50
21545;BME280;10933;50.754;11.508;2023-04-07T11:33:29;99562.03;;;22.57;29.21
21545;BME280;10933;50.754;11.508;2023-04-07T11:36:01;99559.50;;;21.53;30.44
21545;BME280;10933;50.754;11.508;2023-04-07T11:38:29;99564.34;;;21.73;29.36
21545;BME280;10933;50.754;11.508;2023-04-07T11:41:10;99564.78;;;22.10;31.20
21545;BME280;10933;50.754;11.508;2023-04-07T11:43:36;99552.75;;;24.04;29.81
21545;BME280;10933;50.754;11.508;2023-04-07T11:46:04;99554.69;;;22.31;30.04
21545;BME280;10933;50.754;11.508;2023-04-07T11:48:33;99561.69;;;23.68;27.65
21545;BME280;10933;50.754;11.508;2023-04-07T11:51:00;99563.28;;;24.35;26.33
21545;BME280;10933;50.754;11.508;2023-04-07T11:53:27;99560.44;;;24.11;26.91
21545;BME280;10933;50.754;11.508;2023-04-07T11:56:08;99553.34;;;23.56;27.01
21545;BME280;10933;50.754;11.508;2023-04-07T11:58:36;99554.66;;;22.49;28.66
21545;BME280;10933;50.754;11.508;2023-04-07T12:01:05;99561.59;;;21.56;27.69
21545;BME280;10933;50.754;11.508;2023-04-07T12:03:35;99549.03;;;22.37;28.69
21545;BME280;10933;50.754;11.508;2023-04-07T12:06:04;99550.59;;;22.84;27.78
21545;BME280;10933;50.754;11.508;2023-04-07T12:08:41;99556.94;;;22.38;29.08
21545;BME280;10933;50.754;11.508;2023-04-07T12:11:08;99545.94;;;22.76;28.82
21545;BME280;10933;50.754;11.508;2023-04-07T12:13:35;99541.84;;;22.53;27.62
21545;BME280;10933;50.754;11.508;2023-04-07T12:16:02;99544.66;;;22.36;28.75
21545;BME280;10933;50.754;11.508;2023-04-07T12:18:28;99546.38;;;21.15;28.93
21545;BME280;10933;50.754;11.508;2023-04-07T12:20:55;99549.94;;;20.50;29.30
21545;BME280;10933;50.754;11.508;2023-04-07T12:23:22;99555.03;;;18.54;32.92
21545;BME280;10933;50.754;11.508;2023-04-07T12:25:48;99554.72;;;19.83;31.14
21545;BME280;10933;50.754;11.508;2023-04-07T12:28:14;99554.09;;;20.96;29.40
21545;BME280;10933;50.754;11.508;2023-04-07T12:30:40;99552.81;;;21.02;28.40
21545;BME280;10933;50.754;11.508;2023-04-07T12:33:07;99540.31;;;21.36;29.80
21545;BME280;10933;50.754;11.508;2023-04-07T12:35:36;99541.94;;;20.71;30.34
21545;BME280;10933;50.754;11.508;2023-04-07T12:38:03;99538.16;;;19.65;30.55
21545;BME280;10933;50.754;11.508;2023-04-07T12:40:30;99552.75;;;20.76;30.64
21545;BME280;10933;50.754;11.508;2023-04-07T12:42:57;99546.84;;;21.00;29.22
21545;BME280;10933;50.754;11.508;2023-04-07T12:45:23;99541.09;;;21.28;30.23
21545;BME280;10933;50.754;11.508;2023-04-07T12:47:49;99534.22;;;19.80;31.86
21545;BME280;10933;50.754;11.508;2023-04-07T12:50:15;99528.97;;;19.61;31.29
21545;BME280;10933;50.754;11.508;2023-04-07T12:52:42;99535.69;;;20.09;32.74
21545;BME280;10933;50.754;11.508;2023-04-07T12:55:08;99534.50;;;20.32;32.06
21545;BME280;10933;50.754;11.508;2023-04-07T12:57:34;99530.38;;;19.81;31.62
21545;BME280;10933;50.754;11.508;2023-04-07T13:00:00;99523.00;;;19.90;30.86
21545;BME280;10933;50.754;11.508;2023-04-07T13:02:26;99532.13;;;19.77;32.76
21545;BME280;10933;50.754;11.508;2023-04-07T13:04:52;99528.25;;;19.56;32.88
21545;BME280;10933;50.754;11.508;2023-04-07T13:07:18;99533.41;;;17.84;33.81
21545;BME280;10933;50.754;11.508;2023-04-07T13:09:44;99536.81;;;18.08;35.76
21545;BME280;10933;50.754;11.508;2023-04-07T13:12:11;99528.75;;;18.58;35.35